Time;durP1;ratioP1;P1;durP2;ratioP2;P2;SDS_P1;SDS_P2;PMS_P1;PMS_P2;Temp;Humidity;BMP_temperature;BMP_pressure;BME280_temperature;BME280_humidity;BME280_pressure;Samples;Min_cycle;Max_cycle;Signal;HPM_P1;HPM_P2
2022/11/21 00:01:19;;;;;;;15.57;4.93;;;;;;;5.49;100.00;100473.84;5053736;28;20483;-50
2022/11/21 00:03:45;;;;;;;12.90;4.38;;;;;;;5.50;100.00;100482.63;5051913;28;20094;-49
2022/11/21 00:06:10;;;;;;;10.27;4.63;;;;;;;5.48;100.00;100481.84;5052607;28;20029;-47
2022/11/21 00:08:35;;;;;;;13.23;4.72;;;;;;;5.48;100.00;100489.75;5053485;28;20025;-49
2022/11/21 00:11:01;;;;;;;17.20;5.00;;;;;;;5.45;100.00;100488.16;5053731;28;20021;-48
2022/11/21 00:13:26;;;;;;;10.20;4.78;;;;;;;5.44;100.00;100494.34;5053977;28;20041;-49
2022/11/21 00:15:52;;;;;;;15.23;5.10;;;;;;;5.42;100.00;100498.03;5046681;28;20135;-49
2022/11/21 00:18:17;;;;;;;11.88;5.10;;;;;;;5.40;100.00;100500.75;5053587;28;20112;-48
2022/11/21 00:20:43;;;;;;;12.90;4.88;;;;;;;5.38;100.00;100500.03;5044950;28;20032;-48
2022/11/21 00:23:09;;;;;;;11.35;4.85;;;;;;;5.35;100.00;100514.19;5053849;28;20041;-49
2022/11/21 00:25:35;;;;;;;15.23;5.65;;;;;;;5.33;100.00;100513.47;5053346;28;20025;-49
2022/11/21 00:28:00;;;;;;;17.35;5.80;;;;;;;5.34;100.00;100495.84;5047775;28;20387;-48
2022/11/21 00:30:26;;;;;;;19.50;4.70;;;;;;;5.31;100.00;100502.19;5051801;28;20390;-48
2022/11/21 00:32:51;;;;;;;19.42;5.82;;;;;;;5.31;100.00;100496.91;5051276;28;20029;-48
2022/11/21 00:35:16;;;;;;;18.08;5.95;;;;;;;5.31;100.00;100496.03;5053300;28;20025;-48
2022/11/21 00:37:42;;;;;;;17.92;6.22;;;;;;;5.30;100.00;100494.38;5042221;28;20029;-48
2022/11/21 00:40:08;;;;;;;20.92;5.55;;;;;;;5.29;100.00;100490.03;5047923;28;20452;-50
2022/11/21 00:42:33;;;;;;;17.23;5.20;;;;;;;5.27;100.00;100491.91;5053308;28;20383;-48
2022/11/21 00:44:58;;;;;;;20.30;5.13;;;;;;;5.26;100.00;100488.44;5049641;28;20032;-49
2022/11/21 00:47:23;;;;;;;16.83;5.35;;;;;;;5.25;100.00;100484.09;5053431;28;20067;-48
2022/11/21 00:49:49;;;;;;;14.00;5.40;;;;;;;5.24;100.00;100485.03;5051274;28;20023;-48
2022/11/21 00:52:15;;;;;;;14.15;4.70;;;;;;;5.24;100.00;100484.19;5052898;28;20040;-49
2022/11/21 00:54:41;;;;;;;18.10;5.00;;;;;;;5.22;100.00;100486.91;5048015;28;20025;-48
2022/11/21 00:57:06;;;;;;;19.10;5.25;;;;;;;5.21;100.00;100487.00;5053194;28;20368;-48
2022/11/21 00:59:31;;;;;;;19.15;4.82;;;;;;;5.18;100.00;100482.78;5052555;28;20107;-48
2022/11/21 01:01:57;;;;;;;22.20;5.70;;;;;;;5.16;100.00;100484.63;5046393;28;20100;-48
2022/11/21 01:04:22;;;;;;;16.58;4.78;;;;;;;5.13;100.00;100485.69;5050421;28;20036;-48
2022/11/21 01:06:47;;;;;;;17.58;4.63;;;;;;;5.11;100.00;100486.69;5046925;28;20044;-48
2022/11/21 01:09:13;;;;;;;15.65;5.32;;;;;;;5.07;100.00;100490.47;5052500;28;20436;-48
2022/11/21 01:11:38;;;;;;;9.02;4.13;;;;;;;5.06;100.00;100496.66;5052722;28;20033;-49
2022/11/21 01:14:03;;;;;;;15.82;4.70;;;;;;;5.03;100.00;100496.84;5052675;28;20470;-48
2022/11/21 01:16:30;;;;;;;16.65;4.32;;;;;;;4.99;100.00;100499.66;5047475;28;20040;-49
2022/11/21 01:18:56;;;;;;;14.32;4.70;;;;;;;4.95;100.00;100499.94;5052301;28;20021;-49
2022/11/21 01:21:23;;;;;;;15.25;4.38;;;;;;;4.93;100.00;100501.78;5050929;28;20021;-49
2022/11/21 01:23:49;;;;;;;15.88;3.95;;;;;;;4.92;100.00;100495.69;5050086;28;20115;-48
2022/11/21 01:26:17;;;;;;;15.52;4.68;;;;;;;4.88;100.00;100488.94;5046808;28;21052;-48
2022/11/21 01:28:43;;;;;;;14.40;4.35;;;;;;;4.87;100.00;100492.47;5052293;28;20037;-48
2022/11/21 01:31:11;;;;;;;20.33;5.05;;;;;;;4.84;100.00;100486.56;5052815;28;20155;-49
2022/11/21 01:33:37;;;;;;;17.85;3.97;;;;;;;4.85;100.00;100488.25;5049841;28;20094;-49
2022/11/21 01:36:14;;;;;;;20.85;5.35;;;;;;;4.82;100.00;100484.84;5052305;28;20104;-48
2022/11/21 01:38:42;;;;;;;11.63;3.72;;;;;;;4.81;100.00;100485.81;5038642;28;20039;-48
2022/11/21 01:41:09;;;;;;;15.52;4.38;;;;;;;4.81;100.00;100487.56;5048009;28;20051;-48
2022/11/21 01:43:35;;;;;;;15.88;4.65;;;;;;;4.75;100.00;100491.41;5051729;28;20126;-48
2022/11/21 01:46:03;;;;;;;18.08;4.10;;;;;;;4.74;100.00;100489.72;5052087;28;20134;-49
2022/11/21 01:48:44;;;;;;;14.75;4.25;;;;;;;4.74;100.00;100494.97;5050040;28;20043;-48
2022/11/21 01:51:15;;;;;;;10.65;4.30;;;;;;;4.73;100.00;100493.28;5049854;28;20037;-49
2022/11/21 01:53:45;;;;;;;12.88;4.22;;;;;;;4.70;100.00;100480.31;5051893;28;20390;-48
2022/11/21 01:56:10;;;;;;;11.52;4.13;;;;;;;4.70;100.00;100490.84;5049617;28;20029;-48
2022/11/21 01:58:38;;;;;;;16.23;4.72;;;;;;;4.68;100.00;100478.69;5052277;28;20028;-49
2022/11/21 02:01:04;;;;;;;12.65;4.47;;;;;;;4.68;100.00;100479.56;5051286;28;20090;-48
2022/11/21 02:03:35;;;;;;;19.90;4.82;;;;;;;4.63;100.00;100477.19;5037906;28;20037;-49
2022/11/21 02:06:00;;;;;;;15.50;3.90;;;;;;;4.62;100.00;100479.91;5044976;28;20036;-48
2022/11/21 02:08:26;;;;;;;8.88;3.90;;;;;;;4.61;100.00;100486.09;5038134;28;20022;-47
2022/11/21 02:10:57;;;;;;;14.80;4.03;;;;;;;4.58;100.00;100495.03;5051272;28;20025;-49
2022/11/21 02:13:22;;;;;;;11.63;4.07;;;;;;;4.55;100.00;100491.72;5044272;28;20069;-48
2022/11/21 02:15:47;;;;;;;15.88;4.85;;;;;;;4.51;100.00;100493.66;5051667;28;20099;-48
2022/11/21 02:18:13;;;;;;;13.55;4.60;;;;;;;4.50;100.00;100499.88;5050280;28;20029;-49
2022/11/21 02:20:43;;;;;;;11.07;4.90;;;;;;;4.45;100.00;100502.75;5043345;28;20429;-48
2022/11/21 02:23:17;;;;;;;16.17;4.47;;;;;;;4.44;100.00;100505.47;5051809;28;20060;-48
2022/11/21 02:25:43;;;;;;;13.02;4.28;;;;;;;4.39;100.00;100502.25;5052375;28;20566;-48
2022/11/21 02:28:14;;;;;;;18.73;4.68;;;;;;;4.37;100.00;100510.22;5049417;28;20124;-48
2022/11/21 02:30:41;;;;;;;19.13;6.80;;;;;;;4.35;100.00;100495.47;5045575;28;20035;-47
2022/11/21 02:33:07;;;;;;;26.52;8.55;;;;;;;4.33;100.00;100502.59;5049002;28;20501;-48
2022/11/21 02:35:33;;;;;;;26.05;8.75;;;;;;;4.31;100.00;100496.56;5051770;28;20025;-50
2022/11/21 02:38:05;;;;;;;29.02;8.27;;;;;;;4.28;100.00;100502.00;5039905;28;20124;-48
2022/11/21 02:40:35;;;;;;;22.15;7.10;;;;;;;4.26;100.00;100499.44;5051398;28;20462;-50
2022/11/21 02:43:08;;;;;;;19.23;6.65;;;;;;;4.19;100.00;100498.09;5049049;28;20041;-49
2022/11/21 02:45:39;;;;;;;25.92;6.70;;;;;;;4.18;100.00;100506.91;5051489;28;20379;-49
2022/11/21 02:48:04;;;;;;;15.48;5.82;;;;;;;4.15;100.00;100512.38;5051167;28;20174;-51
2022/11/21 02:50:35;;;;;;;16.17;6.05;;;;;;;4.15;100.00;100513.22;5043607;28;20108;-50
2022/11/21 02:53:02;;;;;;;17.50;6.22;;;;;;;4.13;100.00;100509.81;5048504;28;20471;-52
2022/11/21 02:55:27;;;;;;;20.48;6.50;;;;;;;4.10;100.00;100512.63;5047272;28;20029;-49
2022/11/21 02:57:53;;;;;;;21.58;6.80;;;;;;;4.10;100.00;100509.97;5052599;28;20028;-48
2022/11/21 03:00:19;;;;;;;15.23;5.72;;;;;;;4.07;100.00;100503.09;5054815;28;20025;-49
2022/11/21 03:02:45;;;;;;;14.90;5.35;;;;;;;4.07;100.00;100508.34;5054052;28;20063;-49
2022/11/21 03:05:13;;;;;;;15.45;6.03;;;;;;;4.05;100.00;100502.34;5055435;28;20052;-48
2022/11/21 03:07:38;;;;;;;11.88;7.03;;;;;;;4.05;100.00;100502.34;5042509;28;20071;-48
2022/11/21 03:10:04;;;;;;;17.40;7.95;;;;;;;4.03;100.00;100501.59;5055360;28;20056;-49
2022/11/21 03:12:29;;;;;;;18.33;9.38;;;;;;;4.02;100.00;100512.19;5048226;28;20045;-49
2022/11/21 03:14:54;;;;;;;41.47;10.20;;;;;;;4.01;100.00;100507.84;5054940;28;20045;-49
2022/11/21 03:17:20;;;;;;;29.58;10.57;;;;;;;4.00;100.00;100495.66;5055111;28;20033;-49
2022/11/21 03:19:45;;;;;;;27.38;10.45;;;;;;;4.00;100.00;100498.28;5046343;28;20040;-49
2022/11/21 03:22:11;;;;;;;41.00;12.07;;;;;;;3.98;100.00;100506.25;5050305;28;20040;-48
2022/11/21 03:24:37;;;;;;;27.65;13.20;;;;;;;3.98;100.00;100511.50;5055120;28;20468;-48
2022/11/21 03:27:02;;;;;;;30.83;13.30;;;;;;;3.97;100.00;100496.66;5054723;28;20038;-48
2022/11/21 03:29:27;;;;;;;33.28;13.75;;;;;;;3.97;100.00;100496.66;5048143;28;20124;-48
2022/11/21 03:31:53;;;;;;;47.25;15.18;;;;;;;3.98;100.00;100487.00;5054447;28;20402;-49
2022/11/21 03:34:18;;;;;;;32.50;15.93;;;;;;;3.97;100.00;100488.78;5054948;28;20079;-48
2022/11/21 03:36:43;;;;;;;41.35;17.92;;;;;;;3.96;100.00;100488.84;5052573;28;20483;-48
2022/11/21 03:39:09;;;;;;;36.53;18.23;;;;;;;3.94;100.00;100496.81;5054671;28;20033;-48
2022/11/21 03:41:34;;;;;;;66.85;20.00;;;;;;;3.94;100.00;100491.56;5047219;28;20029;-48
2022/11/21 03:44:10;;;;;;;35.17;19.17;;;;;;;3.94;100.00;100481.06;5048038;28;20487;-48
2022/11/21 03:46:38;;;;;;;37.17;19.67;;;;;;;3.93;100.00;100489.03;5051707;28;20032;-49
2022/11/21 03:49:04;;;;;;;64.13;21.13;;;;;;;3.91;100.00;100489.09;5054505;28;20029;-49
2022/11/21 03:51:30;;;;;;;39.90;20.25;;;;;;;3.90;100.00;100484.81;5051582;28;20029;-48
2022/11/21 03:53:55;;;;;;;33.95;19.92;;;;;;;3.90;100.00;100487.44;5054342;28;20029;-48
2022/11/21 03:56:21;;;;;;;55.47;21.10;;;;;;;3.88;100.00;100503.28;5052317;28;20029;-48
2022/11/21 03:58:46;;;;;;;80.07;21.35;;;;;;;3.87;100.00;100503.34;5054266;28;20107;-49
2022/11/21 04:01:12;;;;;;;31.63;21.38;;;;;;;3.87;100.00;100498.94;5053816;28;20032;-49
2022/11/21 04:03:39;;;;;;;38.80;20.25;;;;;;;3.89;100.00;100514.63;5045680;28;20470;-49
2022/11/21 04:06:05;;;;;;;49.30;21.20;;;;;;;3.89;100.00;100510.19;5053857;28;20021;-49
2022/11/21 04:08:30;;;;;;;43.53;20.35;;;;;;;3.89;100.00;100496.22;5048558;28;20028;-48
2022/11/21 04:10:55;;;;;;;44.22;21.08;;;;;;;3.89;100.00;100494.44;5050992;28;20029;-48
2022/11/21 04:13:21;;;;;;;53.80;21.73;;;;;;;3.89;100.00;100490.97;5048788;28;22980;-48
2022/11/21 04:15:46;;;;;;;97.28;22.02;;;;;;;3.87;100.00;100493.69;5053849;28;20029;-49
2022/11/21 04:18:12;;;;;;;71.60;20.55;;;;;;;3.88;100.00;100500.66;5045358;28;20193;-49
2022/11/21 04:20:38;;;;;;;51.15;19.58;;;;;;;3.89;100.00;100501.47;5050053;28;20505;-48
2022/11/21 04:23:03;;;;;;;73.00;19.30;;;;;;;3.88;100.00;100498.03;5053773;28;20041;-48
2022/11/21 04:25:29;;;;;;;93.75;21.05;;;;;;;3.88;100.00;100498.03;5054288;28;20021;-49
2022/11/21 04:27:59;;;;;;;80.93;19.80;;;;;;;3.89;100.00;100490.97;5047565;28;20769;-49
2022/11/21 04:30:24;;;;;;;51.25;20.58;;;;;;;3.89;100.00;100490.97;5049997;28;20044;-50
2022/11/21 04:32:53;;;;;;;51.78;19.58;;;;;;;3.88;100.00;100487.50;5053481;28;20032;-48
2022/11/21 04:35:19;;;;;;;66.03;20.52;;;;;;;3.89;100.00;100473.41;5050703;28;20029;-48
2022/11/21 04:37:45;;;;;;;47.55;21.27;;;;;;;3.91;100.00;100469.88;5053501;28;20068;-49
2022/11/21 04:40:11;;;;;;;63.72;20.70;;;;;;;3.89;100.00;100473.41;5051738;28;20490;-49
2022/11/21 04:42:39;;;;;;;39.20;20.52;;;;;;;3.88;100.00;100463.88;5044536;28;20040;-49
2022/11/21 04:45:05;;;;;;;30.73;20.35;;;;;;;3.87;100.00;100467.41;5053275;28;20024;-48
2022/11/21 04:47:30;;;;;;;57.60;20.42;;;;;;;3.86;100.00;100455.22;5053158;28;20364;-48
2022/11/21 04:49:56;;;;;;;28.98;19.33;;;;;;;3.86;100.00;100451.72;5050419;28;20191;-48
2022/11/21 04:52:21;;;;;;;27.55;19.27;;;;;;;3.85;100.00;100455.31;5053239;28;20059;-48
2022/11/21 04:54:47;;;;;;;31.00;18.52;;;;;;;3.85;100.00;100456.16;5053095;28;20032;-48
2022/11/21 04:57:12;;;;;;;28.27;19.00;;;;;;;3.83;100.00;100458.00;5047389;28;20025;-48
2022/11/21 04:59:37;;;;;;;23.45;18.33;;;;;;;3.85;100.00;100450.88;5053117;28;20363;-48
2022/11/21 05:02:02;;;;;;;26.65;17.48;;;;;;;3.83;100.00;100455.38;5050283;28;20020;-48
2022/11/21 05:04:28;;;;;;;25.05;18.45;;;;;;;3.84;100.00;100456.22;5053081;28;20060;-48
2022/11/21 05:06:53;;;;;;;26.92;18.25;;;;;;;3.83;100.00;100455.38;5052907;28;20398;-48
2022/11/21 05:09:19;;;;;;;27.92;17.42;;;;;;;3.82;100.00;100461.56;5049153;28;20471;-48
2022/11/21 05:14:28;;;;;;;23.23;16.60;;;;;;;3.81;100.00;100451.13;5052653;28;20052;-49
2022/11/21 05:16:53;;;;;;;29.23;15.68;;;;;;;3.80;100.00;100447.66;5051949;28;20406;-48
2022/11/21 05:19:18;;;;;;;25.88;15.82;;;;;;;3.78;100.00;100443.41;5045377;28;20032;-49
2022/11/21 05:21:43;;;;;;;24.38;15.70;;;;;;;3.77;100.00;100444.38;5052564;28;20029;-50
2022/11/21 05:24:09;;;;;;;25.15;15.57;;;;;;;3.75;100.00;100439.19;5039773;28;20025;-48
2022/11/21 05:26:34;;;;;;;32.92;16.55;;;;;;;3.76;100.00;100440.88;5045517;28;20021;-48
2022/11/21 05:29:00;;;;;;;23.83;15.88;;;;;;;3.75;100.00;100439.19;5051390;28;20386;-49
2022/11/21 05:31:25;;;;;;;22.05;15.15;;;;;;;3.73;100.00;100427.06;5052467;28;20453;-48
2022/11/21 05:33:50;;;;;;;24.83;16.20;;;;;;;3.72;100.00;100425.38;5052620;28;20040;-48
2022/11/21 05:36:15;;;;;;;23.98;16.13;;;;;;;3.74;100.00;100420.91;5047455;28;20120;-49
2022/11/21 05:38:41;;;;;;;21.17;15.13;;;;;;;3.73;100.00;100413.94;5051882;28;20044;-49
2022/11/21 05:41:06;;;;;;;19.80;13.90;;;;;;;3.71;100.00;100414.00;5064424;28;20034;-48
2022/11/21 05:43:47;;;;;;;22.25;13.82;;;;;;;3.74;100.00;100410.38;5052585;28;20020;-48
2022/11/21 05:46:18;;;;;;;19.23;13.15;;;;;;;3.72;100.00;100415.72;5056801;28;20021;-49
2022/11/21 05:48:44;;;;;;;20.40;14.25;;;;;;;3.73;100.00;100412.19;5061453;28;20035;-48
2022/11/21 05:51:10;;;;;;;17.85;11.43;;;;;;;3.73;100.00;100412.19;5052807;28;20033;-49
2022/11/21 05:53:35;;;;;;;18.25;10.98;;;;;;;3.73;100.00;100411.31;5052580;28;20383;-50
2022/11/21 05:56:12;;;;;;;19.73;11.18;;;;;;;3.74;100.00;100405.97;5056636;28;20041;-49
2022/11/21 05:58:38;;;;;;;17.70;10.82;;;;;;;3.75;100.00;100407.69;5053584;28;20029;-48
2022/11/21 06:01:05;;;;;;;16.77;10.30;;;;;;;3.76;100.00;100400.63;5046363;28;20434;-49
2022/11/21 06:03:36;;;;;;;19.95;11.38;;;;;;;3.80;100.00;100394.28;5059421;28;20082;-50
2022/11/21 06:06:12;;;;;;;22.40;11.55;;;;;;;3.83;100.00;100399.34;5055562;28;20025;-49
2022/11/21 06:08:44;;;;;;;17.58;11.73;;;;;;;3.85;100.00;100414.13;5051326;28;20037;-50
2022/11/21 06:11:12;;;;;;;20.95;11.98;;;;;;;3.86;100.00;100404.44;5061323;28;20047;-49
2022/11/21 06:13:37;;;;;;;22.15;13.20;;;;;;;3.89;100.00;100407.75;5051039;28;20049;-48
2022/11/21 06:16:04;;;;;;;26.65;15.75;;;;;;;3.93;100.00;100402.31;5051494;28;20071;-49
2022/11/21 06:18:40;;;;;;;22.45;15.25;;;;;;;3.97;100.00;100395.97;5047208;28;20037;-49
2022/11/21 06:21:12;;;;;;;26.85;16.63;;;;;;;4.00;100.00;100399.28;5058145;28;20119;-49
2022/11/21 06:23:37;;;;;;;31.02;18.02;;;;;;;4.01;100.00;100386.97;5063544;28;20043;-48
2022/11/21 06:26:05;;;;;;;28.45;18.88;;;;;;;4.03;100.00;100385.97;5046485;28;20032;-49
2022/11/21 06:28:36;;;;;;;32.42;19.92;;;;;;;4.04;100.00;100387.63;5065510;28;20036;-49
2022/11/21 06:31:06;;;;;;;30.73;19.73;;;;;;;4.05;100.00;100378.00;5067998;28;20021;-49
2022/11/21 06:33:32;;;;;;;32.97;19.60;;;;;;;4.05;100.00;100384.09;5048901;28;20359;-51
2022/11/21 06:36:01;;;;;;;31.00;20.77;;;;;;;4.05;100.00;100370.13;5073690;28;20036;-48
2022/11/21 06:38:26;;;;;;;32.70;20.57;;;;;;;4.05;100.00;100370.94;5069726;28;20068;-48
2022/11/21 06:40:51;;;;;;;31.63;19.95;;;;;;;4.07;100.00;100374.31;5063301;28;20081;-49
2022/11/21 06:43:17;;;;;;;29.65;20.20;;;;;;;4.06;100.00;100375.28;5058638;28;20048;-50
2022/11/21 06:45:42;;;;;;;29.05;19.75;;;;;;;4.05;100.00;100370.94;5066760;28;20028;-49
2022/11/21 06:48:07;;;;;;;31.45;20.45;;;;;;;4.05;100.00;100373.56;5057750;28;20467;-48
2022/11/21 06:50:33;;;;;;;32.33;19.35;;;;;;;4.04;100.00;100373.66;5056318;28;20055;-48
2022/11/21 06:52:59;;;;;;;26.63;18.55;;;;;;;4.03;100.00;100367.56;5056700;28;20402;-49
2022/11/21 06:55:26;;;;;;;27.88;18.95;;;;;;;4.04;100.00;100371.03;5043561;28;20374;-48
2022/11/21 06:57:56;;;;;;;26.00;18.85;;;;;;;4.04;100.00;100368.41;5051142;28;20067;-48
2022/11/21 07:00:23;;;;;;;23.63;18.45;;;;;;;4.04;100.00;100366.63;5064844;28;20046;-51
2022/11/21 07:02:48;;;;;;;23.52;17.48;;;;;;;4.03;100.00;100362.31;5067393;28;20067;-53
2022/11/21 07:05:14;;;;;;;29.77;19.17;;;;;;;4.03;100.00;100364.94;5051592;28;20389;-51
2022/11/21 07:07:39;;;;;;;23.38;17.63;;;;;;;4.01;100.00;100358.94;5058764;28;20029;-54
2022/11/21 07:10:05;;;;;;;27.70;17.30;;;;;;;4.00;100.00;100357.22;5053774;28;20037;-50
2022/11/21 07:15:14;;;;;;;25.63;16.48;;;;;;;3.99;100.00;100352.06;5049228;28;20434;-52
2022/11/21 07:17:39;;;;;;;26.08;16.27;;;;;;;3.98;100.00;100351.22;5051176;28;20104;-51
2022/11/21 07:20:05;;;;;;;25.45;16.20;;;;;;;3.99;100.00;100362.56;5038799;28;20345;-51
2022/11/21 07:22:30;;;;;;;21.55;16.33;;;;;;;3.99;100.00;100357.31;5049799;28;20048;-50
2022/11/21 07:24:56;;;;;;;24.55;16.38;;;;;;;3.99;100.00;100354.69;5048656;28;20391;-54
2022/11/21 07:27:21;;;;;;;27.88;17.63;;;;;;;4.00;100.00;100353.75;5050172;28;20041;-53
2022/11/21 07:29:46;;;;;;;23.73;16.38;;;;;;;4.01;100.00;100348.41;5036067;28;20472;-53
2022/11/21 07:32:12;;;;;;;25.50;16.25;;;;;;;4.03;100.00;100350.94;5047406;28;20028;-50
2022/11/21 07:34:37;;;;;;;24.20;15.88;;;;;;;4.04;100.00;100347.38;5047113;28;20049;-52
2022/11/21 07:37:02;;;;;;;22.25;14.50;;;;;;;4.06;100.00;100353.38;5049374;28;20128;-52
2022/11/21 07:39:27;;;;;;;22.92;15.68;;;;;;;4.08;100.00;100351.53;5046013;28;20479;-50
2022/11/21 07:41:53;;;;;;;22.92;14.70;;;;;;;4.08;100.00;100347.13;5052407;28;20119;-54
2022/11/21 07:44:18;;;;;;;21.40;14.40;;;;;;;4.11;100.00;100348.72;5044815;28;20037;-52
2022/11/21 07:46:43;;;;;;;23.25;14.20;;;;;;;4.12;100.00;100347.78;5050564;28;20025;-51
2022/11/21 07:49:08;;;;;;;27.25;13.48;;;;;;;4.14;100.00;100351.16;5051923;28;20037;-50
2022/11/21 07:51:33;;;;;;;17.83;12.27;;;;;;;4.14;100.00;100348.53;5050639;28;20468;-54
2022/11/21 07:53:59;;;;;;;21.95;11.75;;;;;;;4.17;100.00;100344.91;5049058;28;20041;-53
2022/11/21 07:56:25;;;;;;;23.23;11.85;;;;;;;4.18;100.00;100347.44;5048208;28;20017;-53
2022/11/21 07:58:51;;;;;;;18.50;11.50;;;;;;;4.19;100.00;100338.59;5050784;28;20078;-52
2022/11/21 08:01:17;;;;;;;20.40;11.00;;;;;;;4.23;100.00;100337.50;5049726;28;20060;-54
2022/11/21 08:03:42;;;;;;;20.38;11.05;;;;;;;4.25;100.00;100324.28;5048764;28;20060;-54
2022/11/21 08:06:10;;;;;;;19.00;10.43;;;;;;;4.28;100.00;100328.50;5049622;28;20427;-53
2022/11/21 08:08:36;;;;;;;21.02;10.80;;;;;;;4.28;100.00;100326.72;5053855;28;20021;-52
2022/11/21 08:11:05;;;;;;;22.05;10.30;;;;;;;4.29;100.00;100330.19;5037874;28;20032;-54
2022/11/21 08:13:31;;;;;;;18.95;10.07;;;;;;;4.29;100.00;100332.81;5036942;28;20107;-52
2022/11/21 08:15:56;;;;;;;16.20;10.13;;;;;;;4.28;100.00;100324.09;5040818;28;20067;-51
2022/11/21 08:18:21;;;;;;;16.15;9.07;;;;;;;4.30;100.00;100329.25;5038651;28;20041;-53
2022/11/21 08:20:47;;;;;;;15.65;8.77;;;;;;;4.31;100.00;100325.69;5045701;28;20048;-54
2022/11/21 08:23:12;;;;;;;14.68;8.55;;;;;;;4.32;100.00;100324.75;5051236;28;20036;-52
2022/11/21 08:25:39;;;;;;;15.77;8.68;;;;;;;4.34;100.00;100322.88;5051483;28;20025;-50
2022/11/21 08:28:06;;;;;;;16.55;8.63;;;;;;;4.36;100.00;100313.13;5036771;28;20037;-53
2022/11/21 08:30:32;;;;;;;18.88;8.43;;;;;;;4.37;100.00;100313.03;5044016;28;20044;-51
2022/11/21 08:32:58;;;;;;;15.32;8.82;;;;;;;4.38;100.00;100298.94;5036220;28;20926;-51
2022/11/21 08:35:25;;;;;;;18.25;8.07;;;;;;;4.40;100.00;100296.22;5036013;28;20087;-54
2022/11/21 08:37:55;;;;;;;13.95;7.80;;;;;;;4.42;100.00;100295.19;5035619;28;20037;-55
2022/11/21 08:40:20;;;;;;;19.27;7.75;;;;;;;4.42;100.00;100287.31;5036380;28;20083;-51
2022/11/21 08:42:45;;;;;;;16.00;7.75;;;;;;;4.45;100.00;100289.75;5044008;28;20040;-52
2022/11/21 08:45:10;;;;;;;13.18;6.82;;;;;;;4.48;100.00;100282.59;5041342;28;20463;-51
2022/11/21 08:47:36;;;;;;;14.50;7.50;;;;;;;4.52;100.00;100292.03;5062998;28;20028;-52
2022/11/21 08:50:01;;;;;;;14.48;7.47;;;;;;;4.55;100.00;100291.84;5042342;28;20040;-53
2022/11/21 08:52:26;;;;;;;16.40;7.97;;;;;;;4.58;100.00;100289.88;5045367;28;20360;-50
2022/11/21 08:54:51;;;;;;;15.30;7.43;;;;;;;4.63;100.00;100287.81;5035376;28;20055;-53
2022/11/21 08:57:17;;;;;;;17.30;7.40;;;;;;;4.66;100.00;100284.13;5043808;28;20028;-51
2022/11/21 08:59:42;;;;;;;15.18;6.72;;;;;;;4.69;100.00;100276.03;5038108;28;20107;-50
2022/11/21 09:02:10;;;;;;;15.38;6.95;;;;;;;4.73;100.00;100274.94;5035641;28;20682;-51
2022/11/21 09:04:35;;;;;;;18.63;7.03;;;;;;;4.82;100.00;100278.78;5034284;28;20036;-50
2022/11/21 09:07:00;;;;;;;18.50;7.03;;;;;;;4.85;100.00;100268.06;5027538;28;20029;-53
2022/11/21 09:09:26;;;;;;;15.95;7.18;;;;;;;4.94;100.00;100272.75;5051650;28;20029;-50
2022/11/21 09:11:51;;;;;;;19.45;7.05;;;;;;;5.00;100.00;100267.09;5043033;28;20442;-52
2022/11/21 09:19:44;;;;;;;17.65;6.90;;;;;;;5.28;100.00;100265.38;5047809;28;20087;-51
2022/11/21 09:22:09;;;;;;;13.90;6.43;;;;;;;5.36;100.00;100271.00;5052513;28;20024;-54
2022/11/21 09:24:34;;;;;;;14.52;6.38;;;;;;;5.45;100.00;100255.53;5051952;28;20032;-50
2022/11/21 09:27:00;;;;;;;16.27;6.95;;;;;;;5.55;100.00;100269.81;5044468;28;20022;-53
2022/11/21 09:29:25;;;;;;;13.98;5.90;;;;;;;5.62;100.00;100265.81;5052311;28;20017;-54
2022/11/21 09:31:50;;;;;;;14.65;6.68;;;;;;;5.69;100.00;100269.72;5048173;28;20107;-50
2022/11/21 09:34:15;;;;;;;12.98;5.35;;;;;;;5.75;100.00;100252.69;5050641;28;20047;-50
2022/11/21 09:36:41;;;;;;;15.95;5.80;;;;;;;5.84;100.00;100238.06;5052137;28;20378;-52
2022/11/21 09:39:06;;;;;;;13.93;5.18;;;;;;;5.93;100.00;100238.28;5052855;28;20025;-51
2022/11/21 09:41:56;;;;;;;12.95;5.82;;;;;;;6.02;100.00;100241.28;5048155;28;20037;-50
2022/11/21 09:44:52;;;;;;;11.30;5.40;;;;;;;6.07;100.00;100241.81;5047726;28;20108;-50
2022/11/21 09:47:27;;;;;;;19.83;5.68;;;;;;;6.13;100.00;100238.78;5037077;28;20111;-51
2022/11/21 09:49:56;;;;;;;13.18;4.93;;;;;;;6.19;100.00;100238.34;5047319;28;20151;-50
2022/11/21 09:52:30;;;;;;;12.83;5.30;;;;;;;6.30;100.00;100233.19;5050435;28;20055;-51
2022/11/21 09:55:03;;;;;;;12.88;5.40;;;;;;;6.41;100.00;100228.97;5051625;28;20079;-51
2022/11/21 09:57:30;;;;;;;12.30;5.07;;;;;;;6.50;100.00;100230.13;5047583;28;20505;-53
2022/11/21 09:59:56;;;;;;;14.15;4.95;;;;;;;6.56;100.00;100224.41;5048420;28;20092;-52
2022/11/21 10:02:22;;;;;;;13.60;4.78;;;;;;;6.62;100.00;100216.06;5045083;28;20104;-51
2022/11/21 10:04:49;;;;;;;8.80;4.63;;;;;;;6.66;100.00;100215.75;5043993;28;20044;-52
2022/11/21 10:07:26;;;;;;;14.77;5.53;;;;;;;6.71;100.00;100218.09;5043241;28;20056;-50
2022/11/21 10:10:09;;;;;;;13.18;5.20;;;;;;;6.78;100.00;100213.22;5051203;28;20028;-50
2022/11/21 10:13:04;;;;;;;11.05;4.95;;;;;;;6.83;100.00;100211.91;5049538;28;20552;-50
2022/11/21 10:15:45;;;;;;;21.38;5.88;;;;;;;6.91;100.00;100213.16;5045915;28;20061;-51
2022/11/21 10:18:38;;;;;;;12.93;4.70;;;;;;;6.96;100.00;100196.06;5049131;28;20061;-50
2022/11/21 10:21:41;;;;;;;14.88;4.32;;;;;;;7.00;100.00;100189.59;5049879;28;20021;-50
2022/11/21 10:24:37;;;;;;;13.68;4.43;;;;;;;7.03;100.00;100181.44;5051065;28;20119;-51
2022/11/21 10:27:10;;;;;;;11.52;4.32;;;;;;;7.09;100.00;100174.88;5046476;28;20033;-50
2022/11/21 10:29:40;;;;;;;9.93;4.00;;;;;;;7.14;100.00;100163.97;5051865;28;20029;-49
2022/11/21 10:32:38;;;;;;;9.25;3.67;;;;;;;7.21;100.00;100166.06;5051615;28;20029;-50
2022/11/21 10:35:21;;;;;;;14.73;4.07;;;;;;;7.24;100.00;100162.34;5046383;28;20033;-52
2022/11/21 10:37:59;;;;;;;6.32;3.38;;;;;;;7.22;100.00;100162.44;5047850;28;20116;-51
2022/11/21 10:40:44;;;;;;;9.97;3.93;;;;;;;7.24;100.00;100162.34;5051387;28;20028;-54
2022/11/21 10:46:06;;;;;;;10.57;3.83;;;;;;;7.26;100.00;100160.47;5044879;28;20052;-50
2022/11/21 10:48:32;;;;;;;6.70;3.30;;;;;;;7.30;100.00;100145.22;5049843;28;20025;-50
2022/11/21 10:51:23;;;;;;;7.15;3.40;;;;;;;7.40;100.00;100146.22;5049781;28;20037;-51
2022/11/21 10:56:46;;;;;;;8.75;4.00;;;;;;;7.51;100.00;100148.03;5050886;28;20044;-50
2022/11/21 10:59:21;;;;;;;9.45;3.65;;;;;;;7.56;100.00;100140.59;5050786;28;20096;-50
2022/11/21 11:01:55;;;;;;;9.05;3.75;;;;;;;7.64;100.00;100126.81;5041894;28;20071;-50
2022/11/21 11:04:20;;;;;;;12.93;3.75;;;;;;;7.74;100.00;100130.44;5060162;28;20050;-50
2022/11/21 11:06:47;;;;;;;10.65;3.65;;;;;;;7.79;100.00;100120.34;5068613;28;20521;-50
2022/11/21 11:09:32;;;;;;;12.27;4.30;;;;;;;7.85;100.00;100117.25;5054410;28;20029;-50
2022/11/21 11:12:22;;;;;;;14.30;4.47;;;;;;;7.92;98.56;100117.63;5045404;28;20126;-51
2022/11/21 11:14:53;;;;;;;12.60;4.63;;;;;;;7.94;96.33;100105.13;5039505;28;20049;-50
2022/11/21 11:17:27;;;;;;;11.27;4.03;;;;;;;8.03;97.77;100115.00;5050561;28;20036;-52
2022/11/21 11:20:03;;;;;;;10.43;4.13;;;;;;;8.06;96.43;100101.53;5054684;28;20074;-50
2022/11/21 11:22:29;;;;;;;11.02;4.20;;;;;;;8.11;95.77;100102.03;5054099;28;20049;-50
2022/11/21 11:24:55;;;;;;;8.65;4.00;;;;;;;8.16;96.14;100091.09;5050957;28;20040;-50
2022/11/21 11:27:26;;;;;;;13.07;4.30;;;;;;;8.22;96.17;100098.50;5046809;28;20037;-53
2022/11/21 11:29:52;;;;;;;10.43;3.60;;;;;;;8.23;94.08;100086.97;5040694;28;20041;-50
2022/11/21 11:32:17;;;;;;;9.05;3.65;;;;;;;8.30;92.67;100079.41;5042820;28;20540;-50
2022/11/21 11:34:57;;;;;;;10.80;4.07;;;;;;;8.38;92.54;100084.09;5037570;28;20041;-50